createdAt,value
2022-08-02T00:00:15.006Z,24.60
2022-08-02T00:02:43.549Z,24.59
2022-08-02T00:05:11.516Z,24.57
2022-08-02T00:07:41.160Z,24.43
2022-08-02T00:10:10.871Z,24.31
2022-08-02T00:12:39.040Z,24.35
2022-08-02T00:15:08.211Z,24.38
2022-08-02T00:17:35.853Z,24.32
2022-08-02T00:20:04.541Z,24.30
2022-08-02T00:22:32.451Z,24.23
2022-08-02T00:25:00.053Z,24.13
2022-08-02T00:27:27.441Z,23.92
2022-08-02T00:29:55.362Z,23.92
2022-08-02T00:32:23.427Z,23.83
2022-08-02T00:34:51.302Z,23.85
2022-08-02T00:37:18.670Z,23.91
2022-08-02T00:39:46.271Z,23.80
2022-08-02T00:42:16.703Z,23.69
2022-08-02T00:44:44.099Z,23.76
2022-08-02T00:47:13.948Z,23.65
2022-08-02T00:49:47.482Z,23.78
2022-08-02T00:52:15.433Z,23.83
2022-08-02T00:54:42.859Z,23.81
2022-08-02T00:57:10.214Z,23.81
2022-08-02T00:59:37.802Z,23.85
2022-08-02T01:02:05.163Z,23.97
2022-08-02T01:04:32.610Z,23.72
2022-08-02T01:07:01.213Z,23.76
2022-08-02T01:09:28.568Z,23.81
2022-08-02T01:11:56.153Z,23.85
2022-08-02T01:14:25.323Z,23.71
2022-08-02T01:17:01.468Z,23.65
2022-08-02T01:19:52.163Z,23.69
2022-08-02T01:23:00.079Z,23.72
2022-08-02T01:25:38.572Z,23.61
2022-08-02T01:28:20.917Z,23.50
2022-08-02T01:30:57.585Z,23.67
2022-08-02T01:33:28.465Z,23.62
2022-08-02T01:35:56.963Z,23.55
2022-08-02T01:38:31.109Z,23.52
2022-08-02T01:40:59.140Z,23.59
2022-08-02T01:43:28.526Z,23.63
2022-08-02T01:45:56.797Z,23.58
2022-08-02T01:48:26.768Z,23.49
2022-08-02T01:50:54.429Z,23.43
2022-08-02T01:53:22.502Z,23.44
2022-08-02T01:55:57.711Z,23.37
2022-08-02T01:58:31.762Z,23.37
2022-08-02T02:01:00.087Z,23.30
2022-08-02T02:03:29.726Z,23.25
2022-08-02T02:05:58.785Z,23.23
2022-08-02T02:08:32.862Z,23.10
2022-08-02T02:12:09.351Z,23.10
2022-08-02T02:13:49.567Z,23.15
2022-08-02T02:16:17.474Z,23.19
2022-08-02T02:18:45.112Z,23.06
2022-08-02T02:21:12.811Z,23.06
2022-08-02T02:23:40.818Z,22.89
2022-08-02T02:26:11.520Z,22.95
2022-08-02T02:28:41.228Z,23.07
2022-08-02T02:31:10.539Z,22.96
2022-08-02T02:33:47.089Z,22.89
2022-08-02T02:36:16.963Z,22.90
2022-08-02T02:38:45.458Z,22.81
2022-08-02T02:41:13.091Z,22.76
2022-08-02T02:43:41.650Z,22.81
2022-08-02T02:46:10.298Z,22.83
2022-08-02T02:48:37.978Z,22.81
2022-08-02T02:51:08.165Z,22.69
2022-08-02T02:54:32.903Z,22.63
2022-08-02T02:56:30.904Z,22.40
2022-08-02T02:59:00.621Z,22.49
2022-08-02T03:01:56.264Z,22.51
2022-08-02T03:04:16.001Z,22.52
2022-08-02T03:06:43.424Z,22.54
2022-08-02T03:09:11.581Z,22.58
2022-08-02T03:11:39.810Z,22.57
2022-08-02T03:14:10.934Z,22.52
2022-08-02T03:16:52.179Z,22.49
2022-08-02T03:19:21.375Z,22.49
2022-08-02T03:21:56.572Z,22.34
2022-08-02T03:24:28.031Z,22.44
2022-08-02T03:26:56.175Z,22.48
2022-08-02T03:29:23.518Z,22.46
2022-08-02T03:31:51.042Z,22.50
2022-08-02T03:34:18.748Z,22.51
2022-08-02T03:36:48.584Z,22.60
2022-08-02T03:39:16.887Z,22.62
2022-08-02T03:41:44.535Z,22.51
2022-08-02T03:44:12.607Z,22.55
2022-08-02T03:46:40.882Z,22.47
2022-08-02T03:49:09.427Z,22.39
2022-08-02T03:51:37.041Z,22.44
2022-08-02T03:54:04.492Z,22.54
2022-08-02T03:56:32.124Z,22.44
2022-08-02T03:59:07.799Z,22.52
2022-08-02T04:01:35.511Z,22.48
2022-08-02T04:04:03.196Z,22.45
2022-08-02T04:06:30.539Z,22.48
2022-08-02T04:08:58.273Z,22.47
2022-08-02T04:11:31.827Z,22.50
2022-08-02T04:14:00.773Z,22.57
2022-08-02T04:16:50.540Z,22.58
2022-08-02T04:19:41.791Z,22.59
2022-08-02T04:22:17.661Z,22.56
2022-08-02T04:24:50.232Z,22.56
2022-08-02T04:27:49.231Z,22.59
2022-08-02T04:30:07.072Z,22.66
2022-08-02T04:32:35.512Z,22.79
2022-08-02T04:35:19.930Z,22.78
2022-08-02T04:38:09.414Z,22.93
2022-08-02T04:40:36.473Z,22.96
2022-08-02T04:43:04.100Z,23.02
2022-08-02T04:45:31.908Z,23.09
2022-08-02T04:48:04.988Z,23.17
2022-08-02T04:50:33.779Z,23.04
2022-08-02T04:53:01.586Z,23.19
2022-08-02T04:55:29.827Z,23.29
2022-08-02T04:57:58.847Z,23.31
2022-08-02T05:00:28.530Z,23.39
2022-08-02T05:02:59.944Z,23.44
2022-08-02T05:05:27.572Z,23.42
2022-08-02T05:07:55.111Z,23.46
2022-08-02T05:10:22.675Z,23.64
2022-08-02T05:12:50.408Z,23.79
2022-08-02T05:15:18.623Z,23.75
2022-08-02T05:17:48.578Z,23.87
2022-08-02T05:20:18.246Z,23.82
2022-08-02T05:22:46.500Z,23.92
2022-08-02T05:25:13.920Z,24.15
2022-08-02T05:27:41.604Z,24.06
2022-08-02T05:30:09.439Z,24.19
2022-08-02T05:32:46.966Z,24.37
2022-08-02T05:35:17.710Z,24.42
2022-08-02T05:37:45.155Z,24.51
2022-08-02T05:40:16.798Z,24.47
2022-08-02T05:42:44.373Z,24.56
2022-08-02T05:45:11.887Z,24.68
2022-08-02T05:47:39.703Z,24.82
2022-08-02T05:50:09.059Z,25.08
2022-08-02T05:52:46.707Z,24.97
2022-08-02T05:55:19.336Z,25.10
2022-08-02T05:58:03.583Z,25.16
2022-08-02T06:00:32.288Z,25.14
2022-08-02T06:03:02.808Z,25.29
2022-08-02T06:05:34.557Z,25.44
2022-08-02T06:08:04.348Z,25.37
2022-08-02T06:10:36.549Z,25.54
2022-08-02T06:13:14.175Z,25.79
2022-08-02T06:15:53.233Z,25.76
2022-08-02T06:18:28.018Z,26.09
2022-08-02T06:22:31.689Z,26.01
2022-08-02T06:23:58.556Z,26.32
2022-08-02T06:26:28.245Z,26.34
2022-08-02T06:28:57.787Z,26.63
2022-08-02T06:31:25.548Z,26.86
2022-08-02T06:33:53.101Z,26.92
2022-08-02T06:36:39.499Z,27.16
2022-08-02T06:39:18.763Z,27.38
2022-08-02T06:41:48.295Z,27.49
2022-08-02T06:47:12.037Z,27.83
2022-08-02T06:49:52.265Z,28.13
2022-08-02T06:52:28.370Z,28.23
2022-08-02T06:55:01.173Z,28.47
2022-08-02T06:57:29.401Z,28.59
2022-08-02T06:59:56.825Z,28.75
2022-08-02T07:02:24.429Z,29.00
2022-08-02T07:04:52.171Z,29.32
2022-08-02T07:07:19.833Z,29.55
2022-08-02T07:09:56.310Z,29.54
2022-08-02T07:12:32.682Z,29.65
2022-08-02T07:15:00.356Z,29.77
2022-08-02T07:17:28.566Z,30.12
2022-08-02T07:19:56.764Z,30.07
2022-08-02T07:22:26.710Z,30.22
2022-08-02T07:24:58.866Z,30.20
2022-08-02T07:27:27.056Z,30.34
2022-08-02T07:29:54.944Z,30.44
2022-08-02T07:32:24.491Z,30.47
2022-08-02T07:34:54.178Z,30.60
2022-08-02T07:37:51.182Z,30.65
2022-08-02T07:40:14.743Z,30.76
2022-08-02T07:42:57.800Z,30.92
2022-08-02T07:45:27.772Z,31.07
2022-08-02T07:47:56.937Z,31.06
2022-08-02T07:50:24.748Z,31.02
2022-08-02T07:52:53.712Z,31.23
2022-08-02T07:55:39.628Z,31.28
2022-08-02T07:58:11.204Z,31.28
2022-08-02T08:00:43.143Z,31.36
2022-08-02T08:03:11.055Z,31.63
2022-08-02T08:05:38.391Z,31.72
2022-08-02T08:08:06.076Z,31.77
2022-08-02T08:10:33.771Z,31.67
2022-08-02T08:13:01.143Z,31.69
2022-08-02T08:15:28.526Z,31.52
2022-08-02T08:17:56.150Z,31.74
2022-08-02T08:20:23.611Z,31.94
2022-08-02T08:22:51.102Z,31.98
2022-08-02T08:25:18.931Z,31.96
2022-08-02T08:27:52.034Z,31.87
2022-08-02T08:30:20.768Z,32.01
2022-08-02T08:32:48.432Z,32.04
2022-08-02T08:35:16.196Z,31.65
2022-08-02T08:37:44.030Z,31.69
2022-08-02T08:40:12.291Z,31.91
2022-08-02T08:42:40.105Z,32.13
2022-08-02T08:45:09.021Z,32.26
2022-08-02T08:47:42.779Z,32.03
2022-08-02T08:50:25.922Z,32.16
2022-08-02T08:53:05.525Z,32.30
2022-08-02T08:55:34.509Z,32.23
2022-08-02T08:58:03.241Z,32.10
2022-08-02T09:00:32.508Z,32.27
2022-08-02T09:03:03.261Z,32.44
2022-08-02T09:05:30.911Z,32.32
2022-08-02T09:07:58.264Z,32.41
2022-08-02T09:10:34.091Z,32.35
2022-08-02T09:13:43.544Z,32.35
2022-08-02T09:16:11.729Z,32.43
2022-08-02T09:18:47.081Z,32.42
2022-08-02T09:21:16.784Z,32.61
2022-08-02T09:23:46.275Z,32.63
2022-08-02T09:26:15.544Z,32.71
2022-08-02T09:28:46.456Z,32.46
2022-08-02T09:31:16.069Z,32.46
2022-08-02T09:33:45.002Z,32.69
2022-08-02T09:36:16.582Z,32.69
2022-08-02T09:38:58.324Z,32.68
2022-08-02T09:41:27.979Z,32.71
2022-08-02T09:44:04.726Z,32.87
2022-08-02T09:46:45.028Z,32.82
2022-08-02T09:49:17.750Z,32.87
2022-08-02T09:51:45.335Z,32.60
2022-08-02T09:54:17.622Z,32.87
2022-08-02T09:56:53.284Z,33.07
2022-08-02T09:59:24.791Z,33.12
2022-08-02T10:02:01.245Z,33.06
2022-08-02T10:04:31.725Z,33.30
2022-08-02T10:07:03.640Z,33.27
2022-08-02T10:09:31.681Z,33.09
2022-08-02T10:12:00.163Z,32.97
2022-08-02T10:14:27.946Z,32.84
2022-08-02T10:16:56.982Z,32.74
2022-08-02T10:20:00.921Z,32.79
2022-08-02T10:22:14.683Z,32.51
2022-08-02T10:24:48.043Z,32.34
2022-08-02T10:27:20.937Z,32.43
2022-08-02T10:29:54.347Z,32.52
2022-08-02T10:32:32.776Z,32.66
2022-08-02T10:35:19.803Z,32.76
2022-08-02T10:38:04.643Z,32.74
2022-08-02T10:40:51.394Z,32.62
2022-08-02T10:43:31.192Z,32.64
2022-08-02T10:46:31.627Z,33.05
2022-08-02T10:49:37.384Z,33.11
2022-08-02T10:52:05.388Z,32.92
2022-08-02T10:54:36.233Z,32.84
2022-08-02T10:57:15.307Z,32.62
2022-08-02T10:59:43.561Z,32.43
2022-08-02T11:02:11.928Z,32.28
2022-08-02T11:04:39.280Z,32.27
2022-08-02T11:07:18.137Z,32.27
2022-08-02T11:09:47.599Z,32.25
2022-08-02T11:12:18.052Z,32.27
2022-08-02T11:14:58.612Z,32.22
2022-08-02T11:17:28.919Z,32.15
2022-08-02T11:20:08.578Z,32.17
2022-08-02T11:22:36.687Z,32.04
2022-08-02T11:25:24.266Z,32.00
2022-08-02T11:28:08.930Z,32.00
2022-08-02T11:30:37.132Z,31.91
2022-08-02T11:33:05.025Z,31.92
2022-08-02T11:35:34.721Z,31.62
2022-08-02T11:38:18.581Z,31.86
2022-08-02T11:40:47.065Z,31.69
2022-08-02T11:43:20.462Z,32.04
2022-08-02T11:45:50.131Z,32.24
2022-08-02T11:48:33.802Z,32.46
2022-08-02T11:51:04.082Z,32.61
2022-08-02T11:53:41.911Z,32.51
2022-08-02T11:56:10.771Z,32.42
2022-08-02T11:58:38.497Z,32.45
2022-08-02T12:01:09.434Z,32.34
2022-08-02T12:03:38.767Z,32.14
2022-08-02T12:06:16.429Z,31.96
2022-08-02T12:08:54.264Z,31.69
2022-08-02T12:11:22.456Z,31.61
2022-08-02T12:13:56.373Z,31.51
2022-08-02T12:16:43.776Z,31.58
2022-08-02T12:19:20.034Z,31.43
2022-08-02T12:21:47.504Z,31.61
2022-08-02T12:24:28.285Z,31.78
2022-08-02T12:26:56.941Z,31.84
2022-08-02T12:29:57.815Z,31.92
2022-08-02T12:32:25.174Z,31.81
2022-08-02T12:35:10.620Z,32.08
2022-08-02T12:37:42.802Z,32.07
2022-08-02T12:40:29.622Z,32.37
2022-08-02T12:43:07.961Z,32.71
2022-08-02T12:45:49.064Z,32.99
2022-08-02T12:48:36.707Z,33.14
2022-08-02T12:51:21.990Z,33.07
2022-08-02T12:53:58.940Z,33.41
2022-08-02T12:56:33.520Z,33.67
2022-08-02T12:59:00.914Z,33.68
2022-08-02T13:01:29.784Z,33.85
2022-08-02T13:04:09.058Z,34.01
2022-08-02T13:06:44.388Z,33.99
2022-08-02T13:09:17.110Z,33.85
2022-08-02T13:11:45.598Z,33.90
2022-08-02T13:14:14.134Z,33.85
2022-08-02T13:16:43.584Z,33.95
2022-08-02T13:19:11.300Z,34.02
2022-08-02T13:21:41.355Z,33.96
2022-08-02T13:24:38.219Z,33.83
2022-08-02T13:27:08.139Z,34.08
2022-08-02T13:29:37.888Z,33.91
2022-08-02T13:32:05.956Z,34.05
2022-08-02T13:34:33.361Z,34.04
2022-08-02T13:37:01.853Z,33.95
2022-08-02T13:39:29.495Z,33.77
2022-08-02T13:41:56.860Z,33.81
2022-08-02T13:44:24.437Z,33.63
2022-08-02T13:46:51.780Z,33.72
2022-08-02T13:49:20.321Z,33.73
2022-08-02T13:51:49.915Z,33.59
2022-08-02T13:54:17.502Z,33.50
2022-08-02T13:56:44.912Z,33.49
2022-08-02T13:59:54.328Z,33.45
2022-08-02T14:02:00.409Z,33.47
2022-08-02T14:04:29.620Z,33.41
2022-08-02T14:06:58.943Z,33.32
2022-08-02T14:09:26.869Z,33.34
2022-08-02T14:11:54.457Z,33.33
2022-08-02T14:14:21.772Z,33.46
2022-08-02T14:16:49.108Z,33.30
2022-08-02T14:19:17.531Z,33.51
2022-08-02T14:21:46.352Z,33.47
2022-08-02T14:24:20.269Z,33.50
2022-08-02T14:26:48.540Z,33.53
2022-08-02T14:29:16.511Z,33.43
2022-08-02T14:31:45.086Z,33.32
2022-08-02T14:34:13.667Z,33.21
2022-08-02T14:36:41.107Z,33.07
2022-08-02T14:39:08.486Z,33.19
2022-08-02T14:41:58.237Z,33.02
2022-08-02T14:44:24.734Z,33.14
2022-08-02T14:46:52.683Z,33.22
2022-08-02T14:49:25.334Z,33.26
2022-08-02T14:51:54.666Z,33.21
2022-08-02T14:54:27.790Z,33.19
2022-08-02T14:56:59.042Z,33.07
2022-08-02T14:59:26.895Z,33.03
2022-08-02T15:01:54.744Z,32.76
2022-08-02T15:04:22.389Z,32.88
2022-08-02T15:06:49.752Z,32.84
2022-08-02T15:09:17.137Z,32.93
2022-08-02T15:11:47.969Z,32.86
2022-08-02T15:14:25.733Z,32.89
2022-08-02T15:16:57.501Z,32.89
2022-08-02T15:19:30.280Z,32.61
2022-08-02T15:22:16.815Z,32.71
2022-08-02T15:24:46.654Z,32.74
2022-08-02T15:27:15.206Z,32.53
2022-08-02T15:29:43.619Z,32.64
2022-08-02T15:32:11.861Z,32.48
2022-08-02T15:34:40.319Z,32.40
2022-08-02T15:37:07.724Z,32.20
2022-08-02T15:39:35.211Z,32.05
2022-08-02T15:42:03.149Z,32.09
2022-08-02T15:44:30.627Z,32.27
2022-08-02T15:46:58.040Z,32.26
2022-08-02T15:49:26.408Z,32.30
2022-08-02T15:51:54.379Z,32.32
2022-08-02T15:54:21.730Z,32.13
2022-08-02T15:56:49.766Z,31.91
2022-08-02T15:59:17.464Z,32.24
2022-08-02T16:01:47.848Z,32.30
2022-08-02T16:04:16.729Z,32.35
2022-08-02T16:06:44.114Z,32.31
2022-08-02T16:09:11.498Z,32.22
2022-08-02T16:11:39.244Z,32.20
2022-08-02T16:14:06.985Z,32.25
2022-08-02T16:16:35.647Z,32.33
2022-08-02T16:19:47.082Z,32.28
2022-08-02T16:21:53.487Z,31.93
2022-08-02T16:24:21.309Z,32.12
2022-08-02T16:26:49.054Z,32.03
2022-08-02T16:29:18.882Z,31.79
2022-08-02T16:31:47.930Z,31.74
2022-08-02T16:34:16.703Z,31.70
2022-08-02T16:36:44.611Z,31.77
2022-08-02T16:39:12.209Z,31.79
2022-08-02T16:41:51.925Z,31.67
2022-08-02T16:44:29.730Z,31.68
2022-08-02T16:47:00.563Z,31.66
2022-08-02T16:50:05.873Z,31.68
2022-08-02T16:52:33.654Z,31.63
2022-08-02T16:55:01.283Z,31.73
2022-08-02T16:57:42.681Z,31.68
2022-08-02T17:00:13.991Z,31.74
2022-08-02T17:02:43.242Z,31.73
2022-08-02T17:05:14.435Z,31.56
2022-08-02T17:08:07.352Z,31.48
2022-08-02T17:10:31.156Z,31.40
2022-08-02T17:13:11.560Z,31.50
2022-08-02T17:16:07.395Z,31.42
2022-08-02T17:18:29.310Z,31.48
2022-08-02T17:20:56.895Z,31.36
2022-08-02T17:24:04.291Z,31.37
2022-08-02T17:26:13.168Z,31.12
2022-08-02T17:29:03.701Z,31.21
2022-08-02T17:31:30.117Z,31.24
2022-08-02T17:34:04.928Z,31.12
2022-08-02T17:36:32.970Z,31.09
2022-08-02T17:39:00.315Z,30.81
2022-08-02T17:41:37.696Z,30.85
2022-08-02T17:44:08.604Z,30.77
2022-08-02T17:46:37.179Z,30.68
2022-08-02T17:49:16.995Z,30.75
2022-08-02T17:52:48.372Z,30.60
2022-08-02T17:54:33.351Z,30.65
2022-08-02T17:57:00.951Z,30.67
2022-08-02T17:59:30.762Z,30.65
2022-08-02T18:02:09.380Z,30.65
2022-08-02T18:04:39.025Z,30.64
2022-08-02T18:07:09.459Z,30.46
2022-08-02T18:09:39.540Z,30.45
2022-08-02T18:12:15.344Z,30.36
2022-08-02T18:17:33.915Z,30.26
2022-08-02T18:20:08.583Z,30.25
2022-08-02T18:22:39.786Z,30.27
2022-08-02T18:25:10.364Z,30.16
2022-08-02T18:27:46.109Z,30.10
2022-08-02T18:30:17.666Z,30.04
2022-08-02T18:33:59.778Z,29.97
2022-08-02T18:35:43.495Z,29.88
2022-08-02T18:38:11.766Z,29.84
2022-08-02T18:40:39.387Z,29.86
2022-08-02T18:43:07.658Z,29.70
2022-08-02T18:45:36.878Z,29.60
2022-08-02T18:48:23.047Z,29.56
2022-08-02T18:50:53.770Z,29.41
2022-08-02T18:53:39.121Z,29.27
2022-08-02T18:56:20.262Z,29.11
2022-08-02T18:59:02.932Z,29.08
2022-08-02T19:01:32.257Z,29.05
2022-08-02T19:04:02.460Z,28.99
2022-08-02T19:06:30.577Z,28.92
2022-08-02T19:09:06.017Z,28.84
2022-08-02T19:11:48.177Z,28.70
2022-08-02T19:14:24.049Z,28.58
2022-08-02T19:16:56.305Z,28.48
2022-08-02T19:19:28.750Z,28.33
2022-08-02T19:22:16.339Z,28.31
2022-08-02T19:24:47.067Z,28.20
2022-08-02T19:27:15.466Z,28.09
2022-08-02T19:29:50.827Z,28.04
2022-08-02T19:32:42.298Z,28.01
2022-08-02T19:35:19.488Z,27.92
2022-08-02T19:37:59.259Z,27.89
2022-08-02T19:40:28.774Z,27.73
2022-08-02T19:44:26.589Z,27.69
2022-08-02T19:45:49.867Z,27.62
2022-08-02T19:48:24.414Z,27.56
2022-08-02T19:50:55.934Z,27.31
2022-08-02T19:53:28.973Z,27.27
2022-08-02T19:56:21.101Z,27.10
2022-08-02T19:58:51.369Z,27.03
2022-08-02T20:01:25.284Z,27.11
2022-08-02T20:03:56.159Z,27.13
2022-08-02T20:06:29.762Z,27.08
2022-08-02T20:09:01.312Z,27.13
2022-08-02T20:11:34.411Z,27.09
2022-08-02T20:14:04.704Z,27.08
2022-08-02T20:16:33.348Z,27.00
2022-08-02T20:19:02.763Z,26.99
2022-08-02T20:21:36.546Z,26.94
2022-08-02T20:24:06.429Z,26.78
2022-08-02T20:26:35.211Z,26.75
2022-08-02T20:29:04.110Z,26.77
2022-08-02T20:31:31.525Z,26.76
2022-08-02T20:33:59.141Z,26.66
2022-08-02T20:36:27.227Z,26.67
2022-08-02T20:38:55.283Z,26.55
2022-08-02T20:41:23.728Z,26.41
2022-08-02T20:44:04.876Z,26.40
2022-08-02T20:46:44.150Z,26.32
2022-08-02T20:49:23.125Z,26.30
2022-08-02T20:51:53.921Z,26.28
2022-08-02T20:54:21.931Z,26.33
2022-08-02T20:56:50.571Z,26.30
2022-08-02T20:59:21.097Z,26.27
2022-08-02T21:01:56.787Z,26.29
2022-08-02T21:04:26.340Z,26.36
2022-08-02T21:06:55.782Z,26.24
2022-08-02T21:09:52.497Z,26.16
2022-08-02T21:12:12.628Z,26.00
2022-08-02T21:14:41.956Z,25.93
2022-08-02T21:17:11.086Z,25.95
2022-08-02T21:19:44.140Z,25.85
2022-08-02T21:22:12.125Z,25.85
2022-08-02T21:24:39.877Z,25.82
2022-08-02T21:27:51.984Z,25.87
2022-08-02T21:29:55.063Z,25.79
2022-08-02T21:32:22.454Z,25.73
2022-08-02T21:34:49.843Z,25.38
2022-08-02T21:37:17.459Z,25.31
2022-08-02T21:39:44.847Z,25.43
2022-08-02T21:42:22.585Z,25.44
2022-08-02T21:44:51.065Z,25.49
2022-08-02T21:47:27.339Z,25.31
2022-08-02T21:50:10.080Z,25.35
2022-08-02T21:52:42.324Z,25.27
2022-08-02T21:55:24.233Z,25.20
2022-08-02T21:58:07.645Z,25.12
2022-08-02T22:00:34.985Z,25.15
2022-08-02T22:03:22.960Z,25.18
2022-08-02T22:05:50.180Z,24.83
2022-08-02T22:08:19.365Z,24.60
2022-08-02T22:11:03.148Z,24.64
2022-08-02T22:13:38.839Z,24.63
2022-08-02T22:16:20.632Z,24.64
2022-08-02T22:18:52.661Z,24.62
2022-08-02T22:21:22.865Z,24.64
2022-08-02T22:23:52.068Z,24.66
2022-08-02T22:26:20.511Z,24.70
2022-08-02T22:28:50.456Z,24.77
2022-08-02T22:31:19.558Z,24.74
2022-08-02T22:34:11.785Z,24.77
2022-08-02T22:36:55.299Z,24.69
2022-08-02T22:39:22.720Z,24.63
2022-08-02T22:44:37.752Z,24.65
2022-08-02T22:47:14.637Z,24.54
2022-08-02T22:49:44.558Z,24.53
2022-08-02T22:52:21.098Z,24.54
2022-08-02T22:54:48.900Z,24.36
2022-08-02T22:57:30.471Z,24.41
2022-08-02T22:58:43.502Z,30.29
2022-08-02T23:00:10.071Z,24.33
2022-08-02T23:02:37.836Z,24.35
2022-08-02T23:05:06.318Z,24.22
2022-08-02T23:07:38.546Z,24.31
2022-08-02T23:10:07.918Z,24.19
2022-08-02T23:12:35.323Z,24.22
2022-08-02T23:15:02.977Z,24.10
2022-08-02T23:17:49.086Z,24.22
2022-08-02T23:20:20.476Z,24.20
2022-08-02T23:22:48.105Z,24.09
2022-08-02T23:25:15.437Z,24.09
2022-08-02T23:27:50.274Z,24.15
2022-08-02T23:30:19.275Z,24.03
2022-08-02T23:32:46.849Z,24.04
2022-08-02T23:35:17.219Z,24.05
2022-08-02T23:37:59.666Z,23.98
2022-08-02T23:40:40.538Z,23.92
2022-08-02T23:43:13.510Z,23.93
2022-08-02T23:45:44.534Z,23.94
2022-08-02T23:48:12.191Z,23.82
2022-08-02T23:50:39.652Z,23.81
2022-08-02T23:53:06.993Z,23.78
2022-08-02T23:55:34.609Z,23.79
2022-08-02T23:58:01.905Z,23.76
